createdAt,value
2023-07-25T00:00:11.665Z,99008.77
2023-07-25T00:01:14.646Z,99006.08
2023-07-25T00:02:17.453Z,99005.24
2023-07-25T00:03:20.347Z,99003.37
2023-07-25T00:04:24.467Z,98997.16
2023-07-25T00:05:27.221Z,98993.59
2023-07-25T00:06:31.223Z,98990.06
2023-07-25T00:07:35.966Z,98987.37
2023-07-25T00:08:40.906Z,98998.98
2023-07-25T00:09:44.458Z,98993.59
2023-07-25T00:10:48.073Z,98990.06
2023-07-25T00:11:51.323Z,98995.61
2023-07-25T00:12:55.736Z,99003.70
2023-07-25T00:14:00.167Z,98995.61
2023-07-25T00:15:04.145Z,98994.62
2023-07-25T00:16:07.499Z,98992.76
2023-07-25T00:17:11.580Z,98986.53
2023-07-25T00:18:16.365Z,98980.98
2023-07-25T00:19:19.708Z,98985.50
2023-07-25T00:20:23.668Z,98974.88
2023-07-25T00:21:26.932Z,98973.05
2023-07-25T00:22:30.171Z,98973.88
2023-07-25T00:23:32.719Z,98971.34
2023-07-25T00:24:36.215Z,98978.61
2023-07-25T00:25:39.553Z,98977.73
2023-07-25T00:26:42.708Z,98972.34
2023-07-25T00:27:45.644Z,98976.03
2023-07-25T00:28:49.747Z,98974.37
2023-07-25T00:29:52.826Z,98970.81
2023-07-25T00:30:56.034Z,98969.81
2023-07-25T00:32:12.392Z,98970.64
2023-07-25T00:33:15.324Z,98969.81
2023-07-25T00:34:18.161Z,98966.28
2023-07-25T00:35:21.265Z,98967.95
2023-07-25T00:36:24.159Z,98966.95
2023-07-25T00:37:30.054Z,98955.34
2023-07-25T00:39:45.877Z,98960.45
2023-07-25T00:40:50.630Z,98958.87
2023-07-25T00:41:54.813Z,98956.33
2023-07-25T00:42:57.700Z,98958.03
2023-07-25T00:44:00.550Z,98955.34
2023-07-25T00:45:06.599Z,98957.87
2023-07-25T00:46:09.959Z,98955.17
2023-07-25T00:47:13.666Z,98955.17
2023-07-25T00:48:17.328Z,98960.56
2023-07-25T00:49:21.380Z,98957.71
2023-07-25T00:50:24.352Z,98948.63
2023-07-25T00:51:29.135Z,98950.30
2023-07-25T00:52:32.761Z,98944.77
2023-07-25T00:53:35.941Z,98939.38
2023-07-25T00:54:39.533Z,98944.77
2023-07-25T00:55:42.919Z,98944.77
2023-07-25T00:56:46.614Z,98945.44
2023-07-25T00:57:51.351Z,98941.75
2023-07-25T00:58:56.001Z,98943.58
2023-07-25T00:59:59.936Z,98952.53
2023-07-25T01:01:04.634Z,98948.84
2023-07-25T01:02:08.168Z,98946.14
2023-07-25T01:03:12.009Z,98953.37
2023-07-25T01:04:15.804Z,98938.05
2023-07-25T01:05:19.002Z,98942.42
2023-07-25T01:06:23.325Z,98938.05
2023-07-25T01:07:27.566Z,98943.28
2023-07-25T01:08:32.129Z,98940.59
2023-07-25T01:09:40.390Z,98937.89
2023-07-25T01:10:44.203Z,98938.73
2023-07-25T01:11:49.031Z,98935.20
2023-07-25T01:12:52.887Z,98937.89
2023-07-25T01:13:55.765Z,98939.72
2023-07-25T01:15:01.044Z,98939.72
2023-07-25T01:16:05.521Z,98944.12
2023-07-25T01:17:13.651Z,98950.34
2023-07-25T01:18:16.313Z,98948.68
2023-07-25T01:19:19.630Z,98945.11
2023-07-25T01:20:24.127Z,98947.65
2023-07-25T01:21:27.328Z,98943.28
2023-07-25T01:22:30.097Z,98956.61
2023-07-25T01:23:34.675Z,98951.21
2023-07-25T01:24:47.001Z,98950.34
2023-07-25T01:25:50.818Z,98950.34
2023-07-25T01:26:54.257Z,98940.42
2023-07-25T01:27:57.284Z,98950.34
2023-07-25T01:29:01.915Z,98949.52
2023-07-25T01:30:08.004Z,98951.38
2023-07-25T01:31:11.836Z,98925.30
2023-07-25T01:32:15.359Z,98951.38
2023-07-25T01:33:19.726Z,98940.75
2023-07-25T01:34:24.400Z,98949.67
2023-07-25T01:35:27.860Z,98947.97
2023-07-25T01:36:32.460Z,98944.61
2023-07-25T01:37:35.927Z,98938.34
2023-07-25T01:38:38.908Z,98935.66
2023-07-25T01:39:44.058Z,98940.21
2023-07-25T01:40:48.068Z,98934.81
2023-07-25T01:41:51.477Z,98948.14
2023-07-25T01:42:56.180Z,98944.61
2023-07-25T01:43:59.694Z,98941.91
2023-07-25T01:45:04.083Z,98941.91
2023-07-25T01:46:07.990Z,98944.61
2023-07-25T01:47:11.597Z,98941.05
2023-07-25T01:48:16.276Z,98938.34
2023-07-25T01:49:20.340Z,98943.73
2023-07-25T01:50:24.001Z,98946.44
2023-07-25T01:51:28.536Z,98941.05
2023-07-25T01:52:33.312Z,98948.97
2023-07-25T01:53:35.968Z,98944.61
2023-07-25T01:54:39.602Z,98949.84
2023-07-25T01:55:43.846Z,98951.67
2023-07-25T01:56:50.640Z,98953.37
2023-07-25T01:57:52.712Z,98947.14
2023-07-25T01:58:55.503Z,98951.53
2023-07-25T01:59:58.939Z,98955.06
2023-07-25T02:01:01.817Z,98957.77
2023-07-25T02:02:06.482Z,98946.14
2023-07-25T02:03:11.409Z,98956.93
2023-07-25T02:04:14.576Z,98954.23
2023-07-25T02:05:18.108Z,98947.97
2023-07-25T02:06:21.137Z,98950.51
2023-07-25T02:07:26.787Z,98950.67
2023-07-25T02:08:29.749Z,98956.06
2023-07-25T02:09:32.781Z,98951.53
2023-07-25T02:10:36.103Z,98945.28
2023-07-25T02:11:38.946Z,98938.05
2023-07-25T02:12:41.930Z,98949.67
2023-07-25T02:13:46.927Z,98952.38
2023-07-25T02:14:50.180Z,98947.81
2023-07-25T02:15:53.976Z,98945.11
2023-07-25T02:16:57.318Z,98946.98
2023-07-25T02:18:01.281Z,98900.48
2023-07-25T02:19:05.505Z,98946.98
2023-07-25T02:20:10.103Z,98941.59
2023-07-25T02:21:14.168Z,98947.65
2023-07-25T02:22:18.006Z,98942.42
2023-07-25T02:23:20.617Z,98941.42
2023-07-25T02:24:24.193Z,98940.59
2023-07-25T02:25:27.153Z,98942.26
2023-07-25T02:26:30.117Z,98939.56
2023-07-25T02:27:34.011Z,98938.56
2023-07-25T02:28:36.828Z,98936.86
2023-07-25T02:29:39.925Z,98942.26
2023-07-25T02:30:43.962Z,98940.42
2023-07-25T02:31:50.568Z,98938.56
2023-07-25T02:32:53.855Z,98939.43
2023-07-25T02:33:57.159Z,98936.73
2023-07-25T02:35:00.854Z,98933.17
2023-07-25T02:36:05.142Z,98928.94
2023-07-25T02:37:08.328Z,98943.58
2023-07-25T02:38:11.224Z,98934.81
2023-07-25T02:39:13.991Z,98935.14
2023-07-25T02:40:16.889Z,98942.69
2023-07-25T02:41:20.593Z,98929.53
2023-07-25T02:42:24.526Z,98929.86
2023-07-25T02:43:28.107Z,98929.16
2023-07-25T02:44:30.736Z,98922.39
2023-07-25T02:45:34.173Z,98926.40
2023-07-25T02:46:38.362Z,98922.30
2023-07-25T02:47:41.414Z,98921.78
2023-07-25T02:48:45.045Z,98927.34
2023-07-25T02:49:48.993Z,98923.42
2023-07-25T02:50:52.961Z,98929.97
2023-07-25T02:51:56.084Z,98923.20
2023-07-25T02:52:59.335Z,98913.58
2023-07-25T02:54:01.957Z,98921.11
2023-07-25T02:55:06.486Z,98920.59
2023-07-25T02:56:10.394Z,98920.91
2023-07-25T02:57:13.318Z,98920.20
2023-07-25T02:58:16.178Z,98911.45
2023-07-25T02:59:19.939Z,98911.73
2023-07-25T03:00:25.366Z,98905.52
2023-07-25T03:01:28.572Z,98914.27
2023-07-25T03:02:32.741Z,98911.45
2023-07-25T03:03:35.618Z,98915.66
2023-07-25T03:04:40.479Z,98901.03
2023-07-25T03:05:44.131Z,98907.96
2023-07-25T03:06:47.671Z,98905.97
2023-07-25T03:07:51.812Z,98895.33
2023-07-25T03:08:55.009Z,98895.33
2023-07-25T03:09:58.980Z,98904.34
2023-07-25T03:11:04.060Z,98906.88
2023-07-25T03:12:08.732Z,98903.02
2023-07-25T03:13:11.533Z,98908.09
2023-07-25T03:14:15.514Z,98901.70
2023-07-25T03:15:18.909Z,98903.24
2023-07-25T03:16:22.625Z,98900.39
2023-07-25T03:17:38.900Z,98899.20
2023-07-25T03:18:43.376Z,98900.90
2023-07-25T03:19:46.420Z,98905.30
2023-07-25T03:20:49.966Z,98905.13
2023-07-25T03:21:54.915Z,98898.78
2023-07-25T03:22:58.764Z,98900.48
2023-07-25T03:24:02.062Z,98903.17
2023-07-25T03:25:07.752Z,98904.68
2023-07-25T03:26:11.627Z,98911.77
2023-07-25T03:27:15.857Z,98910.06
2023-07-25T03:28:19.686Z,98906.54
2023-07-25T03:29:23.277Z,98901.15
2023-07-25T03:30:26.055Z,98901.98
2023-07-25T03:31:29.199Z,98894.77
2023-07-25T03:32:32.378Z,98899.98
2023-07-25T03:33:35.330Z,98900.98
2023-07-25T03:34:38.373Z,98900.98
2023-07-25T03:35:42.034Z,98900.98
2023-07-25T03:36:45.024Z,98902.84
2023-07-25T03:37:49.766Z,98894.77
2023-07-25T03:38:52.330Z,98902.84
2023-07-25T03:39:55.724Z,98891.20
2023-07-25T03:40:58.697Z,98899.45
2023-07-25T03:42:03.291Z,98901.15
2023-07-25T03:43:07.454Z,98899.29
2023-07-25T03:44:11.458Z,98894.77
2023-07-25T03:45:14.586Z,98890.20
2023-07-25T03:46:18.380Z,98894.77
2023-07-25T03:47:22.535Z,98888.51
2023-07-25T03:48:26.685Z,98892.73
2023-07-25T03:49:30.064Z,98892.73
2023-07-25T03:50:33.931Z,98886.35
2023-07-25T03:51:37.518Z,98886.35
2023-07-25T03:52:42.275Z,98881.95
2023-07-25T03:53:46.698Z,98883.82
2023-07-25T03:54:49.370Z,98882.98
2023-07-25T03:55:52.640Z,98889.20
2023-07-25T03:56:56.548Z,98876.56
2023-07-25T03:58:00.010Z,98879.27
2023-07-25T03:59:04.630Z,98858.35
2023-07-25T04:00:09.231Z,98858.35
2023-07-25T04:01:14.734Z,98873.70
2023-07-25T04:02:18.971Z,98873.70
2023-07-25T04:03:22.663Z,98874.58
2023-07-25T04:04:26.483Z,98871.72
2023-07-25T04:05:30.604Z,98873.55
2023-07-25T04:06:34.348Z,98875.24
2023-07-25T04:07:38.910Z,98875.24
2023-07-25T04:08:41.964Z,98879.64
2023-07-25T04:09:45.169Z,98875.95
2023-07-25T04:10:48.015Z,98877.77
2023-07-25T04:11:51.516Z,98877.77
2023-07-25T04:12:54.369Z,98881.34
2023-07-25T04:13:58.483Z,98875.95
2023-07-25T04:15:02.424Z,98883.16
2023-07-25T04:16:06.721Z,98880.47
2023-07-25T04:17:11.310Z,98883.16
2023-07-25T04:18:15.420Z,98876.94
2023-07-25T04:19:18.700Z,98879.80
2023-07-25T04:20:22.958Z,98878.10
2023-07-25T04:21:25.855Z,98882.66
2023-07-25T04:23:44.215Z,98876.61
2023-07-25T04:24:46.955Z,98881.28
2023-07-25T04:25:50.319Z,98874.36
2023-07-25T04:26:54.178Z,98875.19
2023-07-25T04:27:56.972Z,98870.50
2023-07-25T04:29:00.834Z,98870.50
2023-07-25T04:30:06.205Z,98870.34
2023-07-25T04:31:09.845Z,98878.27
2023-07-25T04:32:14.794Z,98875.57
2023-07-25T04:33:18.295Z,98874.58
2023-07-25T04:34:21.667Z,98878.10
2023-07-25T04:35:25.470Z,98875.24
2023-07-25T04:36:30.541Z,98886.89
2023-07-25T04:37:35.429Z,98885.03
2023-07-25T04:38:38.391Z,98888.56
2023-07-25T04:39:41.562Z,98890.26
2023-07-25T04:40:45.087Z,98884.87
2023-07-25T04:41:51.114Z,98891.95
2023-07-25T04:42:53.876Z,98879.31
2023-07-25T04:43:56.589Z,98883.70
2023-07-25T04:45:00.560Z,98883.55
2023-07-25T04:46:03.927Z,98881.84
2023-07-25T04:47:08.442Z,98878.15
2023-07-25T04:48:11.655Z,98883.55
2023-07-25T04:49:15.532Z,98882.55
2023-07-25T04:50:19.827Z,98877.98
2023-07-25T04:51:23.323Z,98882.38
2023-07-25T04:52:26.143Z,98874.78
2023-07-25T04:53:29.674Z,98874.78
2023-07-25T04:54:33.478Z,98885.75
2023-07-25T04:55:37.325Z,98890.30
2023-07-25T04:56:42.007Z,98885.75
2023-07-25T04:57:45.752Z,98889.31
2023-07-25T04:58:50.093Z,98887.45
2023-07-25T04:59:55.481Z,98885.59
2023-07-25T05:00:59.064Z,98889.14
2023-07-25T05:02:02.137Z,98886.45
2023-07-25T05:03:05.753Z,98889.14
2023-07-25T05:04:09.286Z,98881.06
2023-07-25T05:05:26.319Z,98887.98
2023-07-25T05:06:29.400Z,98879.89
2023-07-25T05:07:38.569Z,98886.95
2023-07-25T05:08:41.666Z,98878.87
2023-07-25T05:09:45.631Z,98877.04
2023-07-25T05:10:52.080Z,98871.64
2023-07-25T05:11:56.688Z,98867.08
2023-07-25T05:13:00.261Z,98865.25
2023-07-25T05:14:03.051Z,98873.34
2023-07-25T05:15:08.545Z,98865.39
2023-07-25T05:17:24.321Z,98862.56
2023-07-25T05:18:27.950Z,98867.25
2023-07-25T05:19:32.057Z,98860.86
2023-07-25T05:20:35.001Z,98860.86
2023-07-25T05:21:37.657Z,98860.16
2023-07-25T05:22:40.906Z,98853.09
2023-07-25T05:23:44.795Z,98856.63
2023-07-25T05:24:48.476Z,98856.63
2023-07-25T05:25:52.877Z,98857.46
2023-07-25T05:27:00.235Z,98857.63
2023-07-25T05:28:02.319Z,98858.49
2023-07-25T05:29:06.724Z,98861.31
2023-07-25T05:30:10.744Z,98866.05
2023-07-25T05:31:13.522Z,98860.11
2023-07-25T05:32:16.469Z,98864.67
2023-07-25T05:33:19.381Z,98854.05
2023-07-25T05:34:22.439Z,98856.75
2023-07-25T05:35:26.589Z,98858.61
2023-07-25T05:36:30.538Z,98860.11
2023-07-25T05:38:48.922Z,98851.61
2023-07-25T05:39:52.041Z,98851.89
2023-07-25T05:40:57.405Z,98851.03
2023-07-25T05:42:00.942Z,98851.89
2023-07-25T05:43:03.889Z,98847.17
2023-07-25T05:44:06.458Z,98846.34
2023-07-25T05:45:13.044Z,98840.78
2023-07-25T05:46:18.447Z,98841.61
2023-07-25T05:47:22.550Z,98832.53
2023-07-25T05:48:26.630Z,98832.53
2023-07-25T05:49:29.976Z,98839.62
2023-07-25T05:50:32.870Z,98840.45
2023-07-25T05:51:37.643Z,98835.06
2023-07-25T05:52:41.385Z,98835.89
2023-07-25T05:53:44.706Z,98837.59
2023-07-25T05:54:49.449Z,98831.20
2023-07-25T05:55:53.099Z,98832.20
2023-07-25T05:56:57.252Z,98830.34
2023-07-25T05:58:00.083Z,98830.50
2023-07-25T06:00:24.002Z,98835.89
2023-07-25T06:01:27.906Z,98833.20
2023-07-25T06:02:32.107Z,98836.76
2023-07-25T06:03:36.466Z,98830.50
2023-07-25T06:04:39.567Z,98830.50
2023-07-25T06:05:44.712Z,98830.50
2023-07-25T06:06:47.650Z,98830.66
2023-07-25T06:07:50.486Z,98828.83
2023-07-25T06:08:54.074Z,98828.83
2023-07-25T06:09:57.450Z,98829.67
2023-07-25T06:11:01.215Z,98828.67
2023-07-25T06:12:05.407Z,98822.41
2023-07-25T06:13:08.414Z,98821.74
2023-07-25T06:14:12.288Z,98828.97
2023-07-25T06:15:16.445Z,98820.88
2023-07-25T06:16:19.733Z,98820.88
2023-07-25T06:17:23.121Z,98819.21
2023-07-25T06:18:27.117Z,98819.21
2023-07-25T06:19:30.089Z,98822.91
2023-07-25T06:20:33.763Z,98820.21
2023-07-25T06:21:38.085Z,98822.91
2023-07-25T06:22:41.605Z,98821.91
2023-07-25T06:23:44.748Z,98820.88
2023-07-25T06:24:49.300Z,98826.27
2023-07-25T06:25:54.010Z,98823.58
2023-07-25T06:26:59.460Z,98818.19
2023-07-25T06:28:02.281Z,98820.05
2023-07-25T06:29:06.342Z,98820.88
2023-07-25T06:30:11.619Z,98823.58
2023-07-25T06:31:29.173Z,98819.88
2023-07-25T06:32:34.096Z,98825.27
2023-07-25T06:33:37.654Z,98821.58
2023-07-25T06:34:42.074Z,98826.14
2023-07-25T06:35:46.095Z,98816.19
2023-07-25T06:36:50.370Z,98818.05
2023-07-25T06:37:53.166Z,98813.48
2023-07-25T06:38:56.801Z,98818.05
2023-07-25T06:40:00.798Z,98809.59
2023-07-25T06:41:03.737Z,98808.09
2023-07-25T06:42:07.599Z,98811.63
2023-07-25T06:43:12.462Z,98807.09
2023-07-25T06:44:16.017Z,98808.09
2023-07-25T06:45:18.954Z,98803.54
2023-07-25T06:46:24.072Z,98800.84
2023-07-25T06:47:27.138Z,98800.84
2023-07-25T06:48:31.448Z,98803.54
2023-07-25T06:49:34.526Z,98796.31
2023-07-25T06:50:39.537Z,98801.54
2023-07-25T06:51:46.111Z,98797.98
2023-07-25T06:52:49.238Z,98799.02
2023-07-25T06:53:52.875Z,98801.54
2023-07-25T06:54:57.799Z,98801.54
2023-07-25T06:56:01.866Z,98799.67
2023-07-25T06:57:04.764Z,98796.15
2023-07-25T06:58:09.076Z,98801.54
2023-07-25T06:59:12.384Z,98790.75
2023-07-25T07:00:16.601Z,98804.23
2023-07-25T07:01:21.471Z,98799.67
2023-07-25T07:02:25.898Z,98791.59
2023-07-25T07:03:29.428Z,98788.89
2023-07-25T07:04:33.974Z,98792.45
2023-07-25T07:05:39.116Z,98791.59
2023-07-25T07:06:42.543Z,98796.15
2023-07-25T07:07:45.994Z,98788.89
2023-07-25T07:08:51.847Z,98788.06
2023-07-25T07:09:55.313Z,98795.98
2023-07-25T07:10:58.185Z,98787.89
2023-07-25T07:12:01.966Z,98780.80
2023-07-25T07:13:05.113Z,98780.80
2023-07-25T07:14:09.574Z,98781.67
2023-07-25T07:15:13.345Z,98779.97
2023-07-25T07:16:17.605Z,98783.50
2023-07-25T07:17:20.203Z,98783.33
2023-07-25T07:18:23.713Z,98780.80
2023-07-25T07:19:27.615Z,98774.41
2023-07-25T07:20:32.462Z,98777.94
2023-07-25T07:21:36.626Z,98772.55
2023-07-25T07:22:41.042Z,98777.77
2023-07-25T07:23:44.809Z,98775.08
2023-07-25T07:24:49.871Z,98766.98
2023-07-25T07:25:53.153Z,98767.85
2023-07-25T07:26:56.263Z,98770.55
2023-07-25T07:28:00.046Z,98759.77
2023-07-25T07:29:03.586Z,98757.06
2023-07-25T07:30:10.343Z,98761.59
2023-07-25T07:31:16.293Z,98760.59
2023-07-25T07:32:19.729Z,98759.77
2023-07-25T07:33:23.193Z,98754.37
2023-07-25T07:34:28.652Z,98753.37
2023-07-25T07:35:31.926Z,98749.81
2023-07-25T07:36:36.761Z,98746.11
2023-07-25T07:37:40.532Z,98749.64
2023-07-25T07:38:43.502Z,98743.42
2023-07-25T07:39:46.888Z,98749.64
2023-07-25T07:40:51.156Z,98741.55
2023-07-25T07:41:55.573Z,98745.11
2023-07-25T07:42:59.599Z,98742.41
2023-07-25T07:44:03.735Z,98743.25
2023-07-25T07:45:09.782Z,98738.69
2023-07-25T07:46:13.070Z,98729.59
2023-07-25T07:47:16.105Z,98739.55
2023-07-25T07:48:18.988Z,98735.83
2023-07-25T07:49:21.470Z,98741.22
2023-07-25T07:50:24.289Z,98742.08
2023-07-25T07:51:29.379Z,98743.78
2023-07-25T07:52:42.177Z,98744.61
2023-07-25T07:53:39.102Z,98742.75
2023-07-25T07:54:41.922Z,98738.22
2023-07-25T07:55:44.552Z,98746.30
2023-07-25T07:56:47.529Z,98730.13
2023-07-25T07:57:51.142Z,98739.05
2023-07-25T07:58:54.252Z,98731.95
2023-07-25T07:59:57.949Z,98736.35
2023-07-25T08:01:03.227Z,98731.46
2023-07-25T08:02:06.289Z,98736.35
2023-07-25T08:03:10.389Z,98740.91
2023-07-25T08:04:13.839Z,98737.18
2023-07-25T08:05:16.560Z,98739.88
2023-07-25T08:06:20.712Z,98742.58
2023-07-25T08:07:23.531Z,98743.44
2023-07-25T08:08:27.231Z,98741.58
2023-07-25T08:09:30.208Z,98737.88
2023-07-25T08:10:33.853Z,98734.34
2023-07-25T08:11:38.583Z,98732.48
2023-07-25T08:12:43.246Z,98730.62
2023-07-25T08:13:46.613Z,98726.26
2023-07-25T08:14:50.385Z,98724.39
2023-07-25T08:16:00.417Z,98726.09
2023-07-25T08:17:04.675Z,98723.39
2023-07-25T08:18:08.425Z,98719.83
2023-07-25T08:19:12.142Z,98719.83
2023-07-25T08:20:16.706Z,98722.36
2023-07-25T08:21:21.098Z,98721.53
2023-07-25T08:22:24.424Z,98725.92
2023-07-25T08:23:27.406Z,98726.92
2023-07-25T08:24:32.567Z,98728.62
2023-07-25T08:25:35.630Z,98722.36
2023-07-25T08:26:38.491Z,98723.22
2023-07-25T08:27:42.182Z,98726.75
2023-07-25T08:28:45.372Z,98723.22
2023-07-25T08:29:50.486Z,98725.92
2023-07-25T08:31:03.320Z,98720.53
2023-07-25T08:32:08.113Z,98726.75
2023-07-25T08:33:12.939Z,98722.36
2023-07-25T08:34:16.347Z,98728.62
2023-07-25T08:35:19.799Z,98717.83
2023-07-25T08:36:24.078Z,98725.92
2023-07-25T08:37:27.542Z,98715.97
2023-07-25T08:38:30.385Z,98726.75
2023-07-25T08:39:34.559Z,98723.89
2023-07-25T08:40:37.916Z,98729.28
2023-07-25T08:43:04.412Z,98720.87
2023-07-25T08:44:10.653Z,98726.58
2023-07-25T08:45:13.587Z,98726.41
2023-07-25T08:46:17.031Z,98726.41
2023-07-25T08:47:28.281Z,98716.66
2023-07-25T08:48:31.491Z,98722.89
2023-07-25T08:49:36.295Z,98721.88
2023-07-25T08:50:39.679Z,98717.49
2023-07-25T08:51:44.600Z,98720.19
2023-07-25T08:53:00.805Z,98716.48
2023-07-25T08:54:09.091Z,98715.63
2023-07-25T08:55:13.745Z,98711.92
2023-07-25T08:56:18.171Z,98706.53
2023-07-25T08:57:23.864Z,98708.40
2023-07-25T08:58:28.729Z,98699.44
2023-07-25T08:59:32.899Z,98704.84
2023-07-25T09:00:36.875Z,98698.44
2023-07-25T09:01:40.111Z,98693.05
2023-07-25T09:02:43.715Z,98692.22
2023-07-25T09:03:48.885Z,98695.75
2023-07-25T09:04:53.609Z,98682.26
2023-07-25T09:05:58.235Z,98687.66
2023-07-25T09:07:02.647Z,98693.05
2023-07-25T09:08:06.098Z,98694.74
2023-07-25T09:09:09.644Z,98691.18
2023-07-25T09:10:14.258Z,98692.05
2023-07-25T09:11:17.424Z,98692.88
2023-07-25T09:12:20.628Z,98685.65
2023-07-25T09:13:24.684Z,98687.48
2023-07-25T09:14:29.508Z,98690.18
2023-07-25T09:15:33.478Z,98689.17
2023-07-25T09:16:37.456Z,98686.48
2023-07-25T09:17:40.512Z,98695.41
2023-07-25T09:18:43.806Z,98694.57
2023-07-25T09:19:47.775Z,98690.18
2023-07-25T09:20:51.959Z,98689.17
2023-07-25T09:21:55.608Z,98692.70
2023-07-25T09:22:59.073Z,98695.41
2023-07-25T09:24:02.553Z,98692.70
2023-07-25T09:25:07.856Z,98687.31
2023-07-25T09:26:12.807Z,98684.61
2023-07-25T09:28:31.119Z,98678.92
2023-07-25T09:29:37.640Z,98682.78
2023-07-25T09:30:49.876Z,98671.99
2023-07-25T09:31:52.944Z,98664.91
2023-07-25T09:32:55.721Z,98671.99
2023-07-25T09:34:01.508Z,98674.69
2023-07-25T09:35:08.893Z,98680.92
2023-07-25T09:36:13.284Z,98683.61
2023-07-25T09:37:17.529Z,98670.95
2023-07-25T09:38:21.458Z,98670.13
2023-07-25T09:39:25.216Z,98672.83
2023-07-25T09:40:30.229Z,98674.52
2023-07-25T09:42:47.416Z,98667.13
2023-07-25T09:45:08.252Z,98664.25
2023-07-25T09:46:12.589Z,98665.42
2023-07-25T09:47:23.140Z,98670.81
2023-07-25T09:48:29.272Z,98662.73
2023-07-25T09:49:34.582Z,98658.34
2023-07-25T09:50:38.977Z,98669.78
2023-07-25T09:51:47.075Z,98666.25
2023-07-25T09:52:50.252Z,98660.86
2023-07-25T09:53:55.182Z,98656.30
2023-07-25T09:55:01.034Z,98664.39
2023-07-25T09:56:05.738Z,98653.59
2023-07-25T09:57:10.283Z,98658.99
2023-07-25T09:58:13.985Z,98661.69
2023-07-25T09:59:17.860Z,98648.20
2023-07-25T10:00:21.328Z,98648.20
2023-07-25T10:01:26.649Z,98649.90
2023-07-25T10:02:30.667Z,98652.59
2023-07-25T10:03:33.577Z,98642.64
2023-07-25T10:04:38.244Z,98651.59
2023-07-25T10:05:43.869Z,98655.30
2023-07-25T10:06:47.094Z,98654.30
2023-07-25T10:07:50.094Z,98650.73
2023-07-25T10:08:54.044Z,98648.03
2023-07-25T10:10:00.476Z,98647.86
2023-07-25T10:11:04.134Z,98655.95
2023-07-25T10:12:09.264Z,98647.03
2023-07-25T10:13:12.143Z,98642.47
2023-07-25T10:14:15.141Z,98638.11
2023-07-25T10:15:18.470Z,98645.16
2023-07-25T10:16:22.180Z,98650.56
2023-07-25T10:17:26.277Z,98646.20
2023-07-25T10:18:32.126Z,98650.73
2023-07-25T10:19:49.635Z,98641.64
2023-07-25T10:20:53.842Z,98638.11
2023-07-25T10:21:56.617Z,98646.20
2023-07-25T10:23:10.353Z,98640.80
2023-07-25T10:24:14.181Z,98654.30
2023-07-25T10:25:23.172Z,98655.12
2023-07-25T10:26:28.935Z,98655.95
2023-07-25T10:27:34.544Z,98635.41
2023-07-25T10:28:37.674Z,98641.64
2023-07-25T10:29:47.288Z,98648.72
2023-07-25T10:30:53.360Z,98647.03
2023-07-25T10:31:56.632Z,98648.90
2023-07-25T10:33:00.768Z,98648.03
2023-07-25T10:34:05.912Z,98643.50
2023-07-25T10:35:09.197Z,98646.38
2023-07-25T10:36:22.201Z,98650.73
2023-07-25T10:37:29.780Z,98640.98
2023-07-25T10:38:36.720Z,98644.67
2023-07-25T10:39:39.487Z,98644.67
2023-07-25T10:42:17.414Z,98633.75
2023-07-25T10:43:21.478Z,98642.98
2023-07-25T10:44:36.602Z,98639.45
2023-07-25T10:45:50.143Z,98634.06
2023-07-25T10:46:55.436Z,98631.36
2023-07-25T10:49:15.779Z,98629.53
2023-07-25T10:50:37.762Z,98640.45
2023-07-25T10:53:27.312Z,98623.96
2023-07-25T10:54:30.497Z,98629.67
2023-07-25T10:55:33.492Z,98624.45
2023-07-25T10:56:39.001Z,98630.67
2023-07-25T10:57:42.239Z,98621.75
2023-07-25T10:59:07.030Z,98625.28
2023-07-25T11:00:12.384Z,98627.97
2023-07-25T11:01:38.363Z,98621.58
2023-07-25T11:02:43.362Z,98621.58
2023-07-25T11:03:46.648Z,98629.49
2023-07-25T11:04:51.688Z,98626.97
2023-07-25T11:06:10.884Z,98623.27
2023-07-25T11:07:14.397Z,98623.44
2023-07-25T11:08:17.738Z,98620.75
2023-07-25T11:09:22.113Z,98617.02
2023-07-25T11:10:26.500Z,98616.36
2023-07-25T11:11:29.957Z,98618.05
2023-07-25T11:12:33.558Z,98604.56
2023-07-25T11:13:37.580Z,98606.39
2023-07-25T11:14:44.694Z,98603.70
2023-07-25T11:15:48.013Z,98600.83
2023-07-25T11:16:52.720Z,98602.70
2023-07-25T11:17:56.620Z,98598.13
2023-07-25T11:19:00.367Z,98597.99
2023-07-25T11:20:14.308Z,98590.91
2023-07-25T11:21:17.131Z,98593.60
2023-07-25T11:22:20.374Z,98581.81
2023-07-25T11:23:23.251Z,98581.81
2023-07-25T11:24:26.447Z,98574.55
2023-07-25T11:25:29.466Z,98578.08
2023-07-25T11:26:33.657Z,98569.98
2023-07-25T11:27:46.794Z,98572.67
2023-07-25T11:28:49.611Z,98586.16
2023-07-25T11:29:53.518Z,98579.77
2023-07-25T11:30:56.919Z,98580.77
2023-07-25T11:32:02.662Z,98585.16
2023-07-25T11:33:06.597Z,98571.67
2023-07-25T11:34:11.305Z,98566.28
2023-07-25T11:35:22.447Z,98563.58
2023-07-25T11:36:25.411Z,98560.71
2023-07-25T11:37:30.221Z,98568.80
2023-07-25T11:38:36.763Z,98574.20
2023-07-25T11:39:39.724Z,98573.37
2023-07-25T11:40:42.997Z,98570.50
2023-07-25T11:41:46.899Z,98575.03
2023-07-25T11:42:50.413Z,98568.63
2023-07-25T11:43:53.923Z,98573.02
2023-07-25T11:44:57.212Z,98578.41
2023-07-25T11:46:00.618Z,98560.55
2023-07-25T11:47:04.143Z,98589.20
2023-07-25T11:48:10.549Z,98577.44
2023-07-25T11:49:14.379Z,98577.44
2023-07-25T11:50:27.120Z,98572.05
2023-07-25T11:52:39.393Z,98574.39
2023-07-25T11:53:42.156Z,98575.41
2023-07-25T11:54:45.263Z,98574.57
2023-07-25T11:55:51.595Z,98572.70
2023-07-25T11:56:55.405Z,98572.70
2023-07-25T11:57:59.545Z,98567.13
2023-07-25T11:59:03.457Z,98566.30
2023-07-25T12:00:11.263Z,98564.44
2023-07-25T12:01:14.446Z,98553.64
2023-07-25T12:02:17.254Z,98557.20
2023-07-25T12:03:25.891Z,98561.73
2023-07-25T12:04:29.053Z,98563.44
2023-07-25T12:05:32.792Z,98563.44
2023-07-25T12:06:36.207Z,98566.13
2023-07-25T12:07:52.464Z,98565.30
2023-07-25T12:08:56.247Z,98559.91
2023-07-25T12:09:59.464Z,98552.64
2023-07-25T12:11:04.355Z,98554.50
2023-07-25T12:12:15.048Z,98548.08
2023-07-25T12:13:20.949Z,98545.37
2023-07-25T12:14:24.372Z,98553.47
2023-07-25T12:15:44.014Z,98549.11
2023-07-25T12:16:48.735Z,98555.34
2023-07-25T12:17:55.118Z,98549.11
2023-07-25T12:20:20.657Z,98548.92
2023-07-25T12:21:29.685Z,98547.42
2023-07-25T12:22:32.557Z,98550.30
2023-07-25T12:23:40.079Z,98558.21
2023-07-25T12:24:42.959Z,98548.42
2023-07-25T12:25:47.647Z,98551.98
2023-07-25T12:26:55.526Z,98553.82
2023-07-25T12:27:58.492Z,98554.83
2023-07-25T12:29:01.823Z,98550.30
2023-07-25T12:30:06.594Z,98552.98
2023-07-25T12:31:10.803Z,98550.30
2023-07-25T12:32:15.311Z,98554.83
2023-07-25T12:33:20.122Z,98545.73
2023-07-25T12:34:23.540Z,98544.89
2023-07-25T12:35:27.210Z,98535.80
2023-07-25T12:36:30.682Z,98533.93
2023-07-25T12:37:33.761Z,98543.03
2023-07-25T12:38:37.285Z,98534.94
2023-07-25T12:39:42.701Z,98537.63
2023-07-25T12:40:45.679Z,98535.80
2023-07-25T12:41:50.574Z,98544.72
2023-07-25T12:42:55.669Z,98535.80
2023-07-25T12:44:00.648Z,98528.53
2023-07-25T12:45:10.490Z,98531.23
2023-07-25T12:46:14.919Z,98523.97
2023-07-25T12:47:18.086Z,98522.97
2023-07-25T12:48:22.009Z,98522.97
2023-07-25T12:49:25.365Z,98522.97
2023-07-25T12:50:29.709Z,98520.27
2023-07-25T12:51:33.566Z,98519.27
2023-07-25T12:52:37.727Z,98514.70
2023-07-25T12:53:42.986Z,98515.55
2023-07-25T12:54:46.577Z,98510.99